Paris - Charles De Gaulle, France

10:41 AM CEST on October 01, 2014 (GMT +0200)
Charles de Gaulle | Change Station
CLOSE
Current Station
Airport
Location: Paris / Charles De Gaulle,
Elevation: 367 ft
Nearby Weather Stations

Elev 367 ft 49.02 °N, 2.53 °E | Updated 11 minutes ago

Partly Cloudy
Partly Cloudy
63 °F
Feels Like 63 °F
N
0
Wind Variable Wind from North

Today
High -- | Low -- °F
--% Chance of Precip.
Yesterday
High -- | Low -- °F
Precip. -- in
7:49 AM 7:29 PM
Waxing Crescent, 45% visible
Pressure 30.33 in
Visibility 3.7 miles
Clouds Few 100 ft
Dew Point 59 °F
Humidity 88%
Rainfall 0.00 in
Snow Depth Not available.
UV 2 out of 12
Pollen Not available.
Air Quality Not available.
Flu Activity Not available.
METAR LFPG 010830Z 00000KT 6000 1300SE R27L/P2000 R09R/P2000 R26R/1400D R08L/P2000 R26L/P2000 R08R/P2000 R27R/P2000 R09L/P2000 BR FEW001 17/15 Q1027 NOSIG

More Conditions Fewer Conditions

Pressure 30.33 in
Visibility 3.7 miles
Clouds Few 100 ft
Dew Point 59 °F
Humidity 88%
Rainfall 0.00 in
Snow Depth Not available.
UV 2 out of 12
Pollen Not available.
Air Quality Not available.
Flu Activity Not available.
METAR LFPG 010830Z 00000KT 6000 1300SE R27L/P2000 R09R/P2000 R26R/1400D R08L/P2000 R26L/P2000 R08R/P2000 R27R/P2000 R09L/P2000 BR FEW001 17/15 Q1027 NOSIG

More Conditions Fewer Conditions

10-Day Weather Forecast

Almanac

Astronomy

Oct. 01, 2014 Rise Set
Actual Time 7:49 AM CEST 7:29 PM CEST
Civil Twilight 7:17 AM CEST 8:00 PM CEST
Nautical Twilight 6:40 AM CEST 8:37 PM CEST
Astronomical Twilight 6:03 AM CEST 9:14 PM CEST
Moon 2:59 PM CEST No Moon Set
Length of Visible Light 12h 43m
Length of Day
11h 39m
Tomorrow will be 3m 34s shorter.
Waxing Crescent, 45% of the Moon is Illuminated
Today
Waxing Crescent
Oct 1
First Quarter
Oct 8
Full
Oct 15
Last Quarter
Oct 23
New

Yesterday's Extremes

Country Highs Country Lows

Community

WunderPhotos

Upload Photos

1,757,902 photos uploaded!

Nearby

Snow Depth

Not available.

Earthquake Activity

City Distance Mag. Time & Date
No recent earthquake activity has been reported nearby.
Minimum magnitude displayed is 2.5.

Coastal Water Temperatures

Place Temperature
No Stations Reporting

Nearby Weather Stations